Time;durP1;ratioP1;P1;durP2;ratioP2;P2;SDS_P1;SDS_P2;PMS_P1;PMS_P2;Temp;Humidity;BMP_temperature;BMP_pressure;BME280_temperature;BME280_humidity;BME280_pressure;Samples;Min_cycle;Max_cycle;Signal;HPM_P1;HPM_P2
2021/03/10 00:02:06;;;;;;;13.93;7.63;;;6.50;99.90;;;;;;4994274;28;20236;-68
2021/03/10 00:04:32;;;;;;;17.43;8.70;;;6.50;99.90;;;;;;5010826;28;20221;-68
2021/03/10 00:06:58;;;;;;;12.30;7.23;;;6.40;99.90;;;;;;4994334;28;20669;-67
2021/03/10 00:09:24;;;;;;;15.27;8.00;;;6.40;99.90;;;;;;5021751;28;20225;-67
2021/03/10 00:11:49;;;;;;;16.03;8.43;;;6.40;99.90;;;;;;5022608;28;20490;-67
2021/03/10 00:14:15;;;;;;;15.97;8.80;;;6.40;99.90;;;;;;5013203;28;20244;-68
2021/03/10 00:16:41;;;;;;;15.23;7.93;;;6.40;99.90;;;;;;5013985;28;20249;-68
2021/03/10 00:19:07;;;;;;;14.43;7.90;;;6.40;99.90;;;;;;5013165;28;20228;-68
2021/03/10 00:21:32;;;;;;;15.30;8.10;;;6.40;99.90;;;;;;5013413;28;20238;-67
2021/03/10 00:23:58;;;;;;;13.20;7.27;;;6.40;99.90;;;;;;5029508;28;20295;-68
2021/03/10 00:26:23;;;;;;;15.87;6.90;;;6.40;99.90;;;;;;5020465;28;20248;-68
2021/03/10 00:28:49;;;;;;;10.53;6.67;;;6.40;99.90;;;;;;4994015;28;20245;-67
2021/03/10 00:31:15;;;;;;;20.57;8.90;;;6.40;99.90;;;;;;4996452;28;20225;-67
2021/03/10 00:33:41;;;;;;;14.50;8.00;;;6.40;99.90;;;;;;4996714;28;20239;-67
2021/03/10 00:36:07;;;;;;;15.40;7.13;;;6.40;99.90;;;;;;5003052;28;20225;-67
2021/03/10 00:38:33;;;;;;;14.47;7.43;;;6.40;99.90;;;;;;4997171;28;21020;-68
2021/03/10 00:40:59;;;;;;;14.70;7.73;;;6.40;99.90;;;;;;5025204;28;20539;-70
2021/03/10 00:43:24;;;;;;;14.67;7.57;;;6.40;99.90;;;;;;5013917;28;20761;-67
2021/03/10 00:45:50;;;;;;;13.00;6.97;;;6.40;99.90;;;;;;5011689;28;20509;-68
2021/03/10 00:48:18;;;;;;;13.80;7.40;;;6.40;99.90;;;;;;5042637;28;20283;-67
2021/03/10 00:50:44;;;;;;;13.50;7.40;;;6.40;99.90;;;;;;4997229;28;20229;-68
2021/03/10 00:53:09;;;;;;;18.97;8.77;;;6.40;99.90;;;;;;4997234;28;20536;-67
2021/03/10 00:55:35;;;;;;;14.47;8.10;;;6.40;99.90;;;;;;5008542;28;20212;-67
2021/03/10 00:58:00;;;;;;;14.17;7.00;;;6.30;99.90;;;;;;5032583;28;20308;-67
2021/03/10 01:00:26;;;;;;;14.97;7.63;;;6.40;99.90;;;;;;5016169;28;20683;-68
2021/03/10 01:02:52;;;;;;;14.07;7.17;;;6.40;99.90;;;;;;5016555;28;20672;-68
2021/03/10 01:05:18;;;;;;;10.20;7.17;;;6.30;99.90;;;;;;5016025;28;20300;-68
2021/03/10 01:07:44;;;;;;;12.17;6.80;;;6.30;99.90;;;;;;5015657;28;20579;-67
2021/03/10 01:10:10;;;;;;;12.43;6.43;;;6.30;99.90;;;;;;5012394;28;20232;-67
2021/03/10 01:12:37;;;;;;;13.20;7.30;;;6.30;99.90;;;;;;5012888;28;20456;-67
2021/03/10 01:15:10;;;;;;;12.50;6.47;;;6.30;99.90;;;;;;5012207;28;20844;-67
2021/03/10 01:17:35;;;;;;;12.33;7.40;;;6.40;99.90;;;;;;5012720;28;20451;-67
2021/03/10 01:20:08;;;;;;;14.67;7.47;;;6.40;99.90;;;;;;5028686;28;20459;-68
2021/03/10 01:22:33;;;;;;;12.30;6.83;;;6.40;99.90;;;;;;5009250;28;20244;-67
2021/03/10 01:24:59;;;;;;;13.60;7.83;;;6.40;99.90;;;;;;4978535;28;20461;-67
2021/03/10 01:27:25;;;;;;;13.80;7.63;;;6.40;99.90;;;;;;4996169;28;20213;-68
2021/03/10 01:29:50;;;;;;;14.50;7.40;;;6.40;99.90;;;;;;5012609;28;20236;-67
2021/03/10 01:32:16;;;;;;;15.20;6.93;;;6.40;99.90;;;;;;5012288;28;20224;-67
2021/03/10 01:34:42;;;;;;;10.40;6.63;;;6.40;99.90;;;;;;4996196;28;20236;-67
2021/03/10 01:37:07;;;;;;;15.97;7.07;;;6.40;99.90;;;;;;4994986;28;20404;-67
2021/03/10 01:39:35;;;;;;;15.00;8.57;;;6.40;99.90;;;;;;5004279;28;20334;-67
2021/03/10 01:42:02;;;;;;;15.53;6.83;;;6.40;99.90;;;;;;5007625;28;20241;-68
2021/03/10 01:44:29;;;;;;;11.90;7.27;;;6.40;99.90;;;;;;5007462;28;20526;-68
2021/03/10 01:46:55;;;;;;;15.03;6.50;;;6.40;99.90;;;;;;4984501;28;20460;-68
2021/03/10 01:49:21;;;;;;;12.03;6.30;;;6.30;99.90;;;;;;5000894;28;20511;-67
2021/03/10 01:51:47;;;;;;;10.90;6.63;;;6.30;99.90;;;;;;4999574;28;21069;-67
2021/03/10 01:54:14;;;;;;;12.47;7.10;;;6.30;99.90;;;;;;4992028;28;20958;-67
2021/03/10 01:56:41;;;;;;;9.43;6.30;;;6.30;99.90;;;;;;4992181;28;20453;-68
2021/03/10 01:59:07;;;;;;;12.90;6.00;;;6.30;99.90;;;;;;5008189;28;20507;-68
2021/03/10 02:01:33;;;;;;;11.30;6.57;;;6.30;99.90;;;;;;4992329;28;20468;-67
2021/03/10 02:04:05;;;;;;;12.47;7.80;;;6.30;99.90;;;;;;4992314;28;20990;-68
2021/03/10 02:06:59;;;;;;;12.67;6.20;;;6.30;99.90;;;;;;4992698;28;20226;-67
2021/03/10 02:09:35;;;;;;;12.63;6.73;;;6.30;99.90;;;;;;5019014;28;20484;-68
2021/03/10 02:12:22;;;;;;;15.70;7.73;;;6.30;99.90;;;;;;5027714;28;21001;-68
2021/03/10 02:15:14;;;;;;;13.77;7.07;;;6.30;99.90;;;;;;5028309;28;20485;-67
2021/03/10 02:17:48;;;;;;;15.77;8.07;;;6.30;99.90;;;;;;5017865;28;20460;-68
2021/03/10 02:20:27;;;;;;;11.23;6.07;;;6.30;99.90;;;;;;5016701;28;20891;-67
2021/03/10 02:23:14;;;;;;;12.53;7.37;;;6.30;99.90;;;;;;5036418;28;20467;-67
2021/03/10 02:25:52;;;;;;;11.47;7.47;;;6.30;99.90;;;;;;5026991;28;20538;-68
2021/03/10 02:28:18;;;;;;;14.40;7.10;;;6.30;99.90;;;;;;5011116;28;20501;-68
2021/03/10 02:30:49;;;;;;;14.17;7.70;;;6.30;99.90;;;;;;5011614;28;20546;-67
2021/03/10 02:33:19;;;;;;;12.03;6.47;;;6.30;99.90;;;;;;5012362;28;20443;-68
2021/03/10 02:35:53;;;;;;;12.07;6.73;;;6.30;99.90;;;;;;5011880;28;20875;-69
2021/03/10 02:38:21;;;;;;;14.97;6.80;;;6.30;99.90;;;;;;5008290;28;20453;-69
2021/03/10 02:40:49;;;;;;;14.47;7.57;;;6.30;99.90;;;;;;4994936;28;20978;-70
2021/03/10 02:43:16;;;;;;;13.27;6.87;;;6.20;99.90;;;;;;5029646;28;20459;-69
2021/03/10 02:45:43;;;;;;;14.00;7.00;;;6.20;99.90;;;;;;5048056;28;20470;-70
2021/03/10 02:48:09;;;;;;;13.00;7.40;;;6.30;99.90;;;;;;5018949;28;20542;-69
2021/03/10 02:50:36;;;;;;;15.10;7.27;;;6.30;99.90;;;;;;5047897;28;21012;-70
2021/03/10 02:53:05;;;;;;;13.17;7.70;;;6.30;99.90;;;;;;5005322;28;20542;-70
2021/03/10 02:55:32;;;;;;;14.77;7.50;;;6.30;99.90;;;;;;5048148;28;20489;-69
2021/03/10 02:57:58;;;;;;;13.77;7.17;;;6.30;99.90;;;;;;5015759;28;20960;-69
2021/03/10 03:00:25;;;;;;;14.67;7.20;;;6.30;99.90;;;;;;5033633;28;20510;-69
2021/03/10 03:02:51;;;;;;;17.77;8.70;;;6.30;99.90;;;;;;5015016;28;20482;-69
2021/03/10 03:05:17;;;;;;;16.77;8.17;;;6.30;99.90;;;;;;5031347;28;20439;-69
2021/03/10 03:07:45;;;;;;;15.80;8.63;;;6.30;99.90;;;;;;5031522;28;20276;-70
2021/03/10 03:10:15;;;;;;;14.10;7.30;;;6.30;99.90;;;;;;5039947;28;20462;-68
2021/03/10 03:12:42;;;;;;;18.40;8.97;;;6.30;99.90;;;;;;4998767;28;20546;-68
2021/03/10 03:15:13;;;;;;;17.77;9.43;;;6.30;99.90;;;;;;5030946;28;20534;-67
2021/03/10 03:17:38;;;;;;;13.10;8.03;;;6.30;99.90;;;;;;5031431;28;20456;-69
2021/03/10 03:20:06;;;;;;;15.90;7.70;;;6.30;99.90;;;;;;5014740;28;20474;-69
2021/03/10 03:22:33;;;;;;;15.37;9.20;;;6.30;99.90;;;;;;5031359;28;20225;-69
2021/03/10 03:24:59;;;;;;;15.33;8.10;;;6.30;99.90;;;;;;4996083;28;20451;-69
2021/03/10 03:27:26;;;;;;;13.23;7.00;;;6.30;99.90;;;;;;5012696;28;20453;-70
2021/03/10 03:29:57;;;;;;;15.37;7.60;;;6.30;99.90;;;;;;4995118;28;20456;-69
2021/03/10 03:32:28;;;;;;;10.40;7.03;;;6.30;99.90;;;;;;4978971;28;20456;-69
2021/03/10 03:34:55;;;;;;;16.03;7.70;;;6.30;99.90;;;;;;4994823;28;20465;-71
2021/03/10 03:37:22;;;;;;;31.80;15.97;;;6.30;99.90;;;;;;4994852;28;20456;-68
2021/03/10 03:39:49;;;;;;;22.20;12.03;;;6.30;99.90;;;;;;5027626;28;20444;-69
2021/03/10 03:42:16;;;;;;;17.50;9.33;;;6.30;99.90;;;;;;5027219;28;20468;-69
2021/03/10 03:44:42;;;;;;;18.60;9.20;;;6.30;99.90;;;;;;5040420;28;20475;-70
2021/03/10 03:47:09;;;;;;;18.43;9.37;;;6.30;99.90;;;;;;4994610;28;20456;-67
2021/03/10 03:49:35;;;;;;;20.77;9.23;;;6.30;99.90;;;;;;5010837;28;20317;-69
2021/03/10 03:52:01;;;;;;;14.80;8.50;;;6.30;99.90;;;;;;5011081;28;20465;-68
2021/03/10 03:54:27;;;;;;;12.93;8.40;;;6.30;99.90;;;;;;5009165;28;20450;-69
2021/03/10 03:56:52;;;;;;;17.30;8.80;;;6.30;99.90;;;;;;5002929;28;20262;-69
2021/03/10 03:59:18;;;;;;;20.40;8.20;;;6.30;99.90;;;;;;4997428;28;20817;-67
2021/03/10 04:01:43;;;;;;;16.50;9.10;;;6.30;99.90;;;;;;5030397;28;20320;-69
2021/03/10 04:04:09;;;;;;;16.17;8.17;;;6.20;99.90;;;;;;4997458;28;20229;-69
2021/03/10 04:06:35;;;;;;;12.10;6.83;;;6.20;99.90;;;;;;4981713;28;20274;-69
2021/03/10 04:09:01;;;;;;;16.87;8.10;;;6.20;99.90;;;;;;4997202;28;20702;-70
2021/03/10 04:11:27;;;;;;;16.47;8.97;;;6.20;99.90;;;;;;4997116;28;20279;-69
2021/03/10 04:13:53;;;;;;;15.60;7.93;;;6.20;99.90;;;;;;5010842;28;20456;-69
2021/03/10 04:16:18;;;;;;;12.57;7.60;;;6.20;99.90;;;;;;5013665;28;20217;-68
2021/03/10 04:18:44;;;;;;;14.30;7.80;;;6.20;99.90;;;;;;5013908;28;20221;-70
2021/03/10 04:21:10;;;;;;;18.33;8.87;;;6.20;99.90;;;;;;5013278;28;20224;-69
2021/03/10 04:23:36;;;;;;;15.67;8.10;;;6.20;99.90;;;;;;5013754;28;20233;-70
2021/03/10 04:26:01;;;;;;;16.50;7.67;;;6.20;99.90;;;;;;5013444;28;20706;-68
2021/03/10 04:28:27;;;;;;;19.50;8.77;;;6.20;99.90;;;;;;5013353;28;20225;-68
2021/03/10 04:30:53;;;;;;;15.90;7.97;;;6.20;99.90;;;;;;5013415;28;20251;-69
2021/03/10 04:33:18;;;;;;;15.97;7.90;;;6.20;99.90;;;;;;5012905;28;20228;-69
2021/03/10 04:35:44;;;;;;;13.50;7.90;;;6.20;99.90;;;;;;5013840;28;20275;-69
2021/03/10 04:38:10;;;;;;;16.07;7.70;;;6.10;99.90;;;;;;5023870;28;20216;-69
2021/03/10 04:40:35;;;;;;;19.73;9.60;;;6.10;99.90;;;;;;5016149;28;20231;-70
2021/03/10 04:43:01;;;;;;;16.80;8.10;;;6.10;99.90;;;;;;5032769;28;20311;-70
2021/03/10 04:45:27;;;;;;;12.43;6.20;;;6.10;99.90;;;;;;5016858;28;20683;-70
2021/03/10 04:47:52;;;;;;;13.07;7.60;;;6.10;99.90;;;;;;5017064;28;20213;-70
2021/03/10 04:50:18;;;;;;;15.07;8.57;;;6.10;99.90;;;;;;5049320;28;20627;-69
2021/03/10 04:52:44;;;;;;;12.90;7.40;;;6.10;99.90;;;;;;5033160;28;20241;-69
2021/03/10 04:55:11;;;;;;;15.10;8.80;;;6.10;99.90;;;;;;5016264;28;20451;-70
2021/03/10 04:57:38;;;;;;;13.33;7.30;;;6.10;99.90;;;;;;5049527;28;20307;-69
2021/03/10 05:00:06;;;;;;;17.97;8.83;;;6.10;99.90;;;;;;5015834;28;20467;-68
2021/03/10 05:02:33;;;;;;;13.47;7.60;;;6.10;99.90;;;;;;5032752;28;20487;-68
2021/03/10 05:04:59;;;;;;;18.97;8.43;;;6.10;99.90;;;;;;5049317;28;20501;-69
2021/03/10 05:07:25;;;;;;;14.60;8.90;;;6.00;99.90;;;;;;5016451;28;20865;-70
2021/03/10 05:09:50;;;;;;;15.17;8.80;;;6.10;99.90;;;;;;5016091;28;20787;-69
2021/03/10 05:12:16;;;;;;;18.00;10.13;;;6.10;99.90;;;;;;5006727;28;20239;-68
2021/03/10 05:14:42;;;;;;;17.10;8.87;;;6.10;99.90;;;;;;5012767;28;20213;-69
2021/03/10 05:17:07;;;;;;;18.90;10.33;;;6.10;99.90;;;;;;5012434;28;20221;-69
2021/03/10 05:19:33;;;;;;;13.07;8.30;;;6.10;99.90;;;;;;4996072;28;20254;-69
2021/03/10 05:21:59;;;;;;;15.37;8.70;;;6.00;99.90;;;;;;5011779;28;20229;-69
2021/03/10 05:24:25;;;;;;;16.67;9.17;;;6.10;99.90;;;;;;5048378;28;20220;-70
2021/03/10 05:26:50;;;;;;;18.83;8.53;;;6.00;99.90;;;;;;4999159;28;20593;-70
2021/03/10 05:29:16;;;;;;;12.50;7.70;;;6.10;99.90;;;;;;5012062;28;20219;-69
2021/03/10 05:31:42;;;;;;;16.03;9.00;;;6.10;99.90;;;;;;4996018;28;20655;-69
2021/03/10 05:34:07;;;;;;;15.20;8.67;;;6.00;99.90;;;;;;4995938;28;20225;-69
2021/03/10 05:36:34;;;;;;;13.63;7.20;;;6.00;99.90;;;;;;4990678;28;20233;-69
2021/03/10 05:39:00;;;;;;;12.33;7.47;;;6.10;99.90;;;;;;4992229;28;20710;-69
2021/03/10 05:41:25;;;;;;;12.90;8.13;;;6.10;99.90;;;;;;4992342;28;20532;-69
2021/03/10 05:43:52;;;;;;;13.37;8.90;;;6.10;99.90;;;;;;5009349;28;20234;-69
2021/03/10 05:46:18;;;;;;;21.70;10.37;;;6.10;99.90;;;;;;4992838;28;20548;-69
2021/03/10 05:48:43;;;;;;;33.17;12.20;;;6.00;99.90;;;;;;5028472;28;20563;-68
2021/03/10 05:51:09;;;;;;;30.40;15.00;;;6.00;99.90;;;;;;4995241;28;20220;-69
2021/03/10 05:53:42;;;;;;;29.10;13.87;;;6.00;99.90;;;;;;4999523;28;20245;-69
2021/03/10 05:56:08;;;;;;;22.10;11.57;;;6.00;99.90;;;;;;5008338;28;20605;-69
2021/03/10 05:58:33;;;;;;;22.67;10.67;;;6.00;99.90;;;;;;4988429;28;21015;-69
2021/03/10 06:00:59;;;;;;;21.53;10.50;;;6.00;99.90;;;;;;5004339;28;20480;-69
2021/03/10 06:03:25;;;;;;;16.70;9.60;;;5.90;99.90;;;;;;4991745;28;20237;-69
2021/03/10 06:05:59;;;;;;;17.37;8.40;;;5.90;99.90;;;;;;5007757;28;20222;-68
2021/03/10 06:08:33;;;;;;;17.83;8.10;;;6.00;99.90;;;;;;4980558;28;20589;-69
2021/03/10 06:11:00;;;;;;;17.13;8.67;;;6.00;99.90;;;;;;5011207;28;20481;-70
2021/03/10 06:13:31;;;;;;;17.77;8.60;;;6.00;99.90;;;;;;4996360;28;20471;-70
2021/03/10 06:15:59;;;;;;;15.50;8.40;;;6.00;99.90;;;;;;5006637;28;20448;-69
2021/03/10 06:18:33;;;;;;;13.70;8.13;;;6.00;99.90;;;;;;5024920;28;21013;-69
2021/03/10 06:21:08;;;;;;;19.57;8.50;;;6.00;99.90;;;;;;5009408;28;20475;-69
2021/03/10 06:23:36;;;;;;;19.00;9.93;;;6.00;99.90;;;;;;5011915;28;20487;-69
2021/03/10 06:26:03;;;;;;;15.77;9.10;;;6.00;99.90;;;;;;4995329;28;20460;-70
2021/03/10 06:28:39;;;;;;;14.67;8.40;;;6.10;99.90;;;;;;5028348;28;20456;-69
2021/03/10 06:31:30;;;;;;;20.23;9.40;;;6.00;99.90;;;;;;5011149;28;21004;-69
2021/03/10 06:34:04;;;;;;;16.20;9.03;;;6.10;99.90;;;;;;5031921;28;20843;-70
2021/03/10 06:36:32;;;;;;;15.47;8.47;;;6.10;99.90;;;;;;5012937;28;20467;-68
2021/03/10 06:38:58;;;;;;;18.10;8.70;;;6.00;99.90;;;;;;5014213;28;20452;-69
2021/03/10 06:41:50;;;;;;;14.77;9.77;;;6.10;99.90;;;;;;5016223;28;20521;-69
2021/03/10 06:44:22;;;;;;;15.70;8.20;;;6.00;99.90;;;;;;5030596;28;21049;-69
2021/03/10 06:47:02;;;;;;;19.13;9.70;;;6.00;99.90;;;;;;5042818;28;20497;-68
2021/03/10 06:49:33;;;;;;;17.40;8.53;;;6.00;99.90;;;;;;5034597;28;20442;-70
2021/03/10 06:52:06;;;;;;;16.00;8.37;;;6.00;99.90;;;;;;5051251;28;20833;-69
2021/03/10 06:54:32;;;;;;;20.37;10.70;;;6.00;99.90;;;;;;5033968;28;20461;-69
2021/03/10 06:57:01;;;;;;;19.53;9.63;;;6.00;99.90;;;;;;5050726;28;20454;-69
2021/03/10 06:59:43;;;;;;;20.47;9.77;;;5.90;99.90;;;;;;5050869;28;20212;-69
2021/03/10 07:02:16;;;;;;;14.77;9.13;;;6.00;99.90;;;;;;5033424;28;20601;-67
2021/03/10 07:04:43;;;;;;;15.63;7.77;;;6.00;99.90;;;;;;5017876;28;20539;-69
2021/03/10 07:07:10;;;;;;;15.37;8.03;;;6.00;99.90;;;;;;5034167;28;20980;-67
2021/03/10 07:09:37;;;;;;;22.80;10.33;;;6.00;99.90;;;;;;5051999;28;21045;-69
2021/03/10 07:12:05;;;;;;;21.50;10.80;;;6.00;99.90;;;;;;5009828;28;20647;-69
2021/03/10 07:14:33;;;;;;;19.07;8.90;;;6.00;99.90;;;;;;5039220;28;20448;-70
2021/03/10 07:16:59;;;;;;;19.90;9.70;;;6.00;99.90;;;;;;5013550;28;20528;-69
2021/03/10 07:19:25;;;;;;;16.33;8.60;;;6.00;99.90;;;;;;5030505;28;20447;-69
2021/03/10 07:22:14;;;;;;;19.63;10.37;;;6.00;99.90;;;;;;4992167;28;20849;-70
2021/03/10 07:24:55;;;;;;;17.37;10.30;;;6.00;99.90;;;;;;4994557;28;20229;-69
2021/03/10 07:27:21;;;;;;;23.07;10.70;;;6.00;99.90;;;;;;5009980;28;20464;-69
2021/03/10 07:29:47;;;;;;;20.60;11.40;;;6.00;99.90;;;;;;5023282;28;20486;-69
2021/03/10 07:32:22;;;;;;;14.27;8.60;;;6.00;99.90;;;;;;5048275;28;20493;-69
2021/03/10 07:34:47;;;;;;;20.73;9.80;;;6.00;99.90;;;;;;5032805;28;20474;-68
2021/03/10 07:37:17;;;;;;;16.17;9.10;;;6.00;99.90;;;;;;5031749;28;20596;-67
2021/03/10 07:39:43;;;;;;;23.57;11.20;;;6.00;99.90;;;;;;5043595;28;20226;-67
2021/03/10 07:42:11;;;;;;;18.50;11.17;;;6.00;99.90;;;;;;5017027;28;20466;-67
2021/03/10 07:44:54;;;;;;;21.30;10.80;;;6.00;99.90;;;;;;5049718;28;20467;-67
2021/03/10 07:47:20;;;;;;;26.10;12.53;;;6.00;99.90;;;;;;5049797;28;20532;-68
2021/03/10 07:49:59;;;;;;;26.07;14.23;;;6.10;99.90;;;;;;5029768;28;20505;-67
2021/03/10 07:52:27;;;;;;;27.23;14.90;;;6.10;99.90;;;;;;5029492;28;20581;-68
2021/03/10 07:54:59;;;;;;;24.33;13.60;;;6.10;99.90;;;;;;5030262;28;20978;-67
2021/03/10 07:57:25;;;;;;;29.80;16.03;;;6.10;99.90;;;;;;5013058;28;20458;-68
2021/03/10 07:59:57;;;;;;;30.17;18.30;;;6.10;99.90;;;;;;4997115;28;20464;-68
2021/03/10 08:02:26;;;;;;;36.97;20.30;;;6.10;99.90;;;;;;5029247;28;20462;-68
2021/03/10 08:05:02;;;;;;;33.50;20.63;;;6.10;99.90;;;;;;5029721;28;20569;-68
2021/03/10 08:07:32;;;;;;;36.43;22.40;;;6.10;99.90;;;;;;5013207;28;20513;-67
2021/03/10 08:09:59;;;;;;;43.47;25.17;;;6.20;99.90;;;;;;5012053;28;20466;-67
2021/03/10 08:12:36;;;;;;;49.33;26.07;;;6.10;99.90;;;;;;4995545;28;20459;-69
2021/03/10 08:15:04;;;;;;;38.33;23.60;;;6.20;99.90;;;;;;5027467;28;20452;-67
2021/03/10 08:17:29;;;;;;;42.20;25.23;;;6.20;99.90;;;;;;5026299;28;20542;-69
2021/03/10 08:20:04;;;;;;;44.53;24.20;;;6.20;99.90;;;;;;5022652;28;20484;-68
2021/03/10 08:22:31;;;;;;;42.37;22.10;;;6.20;99.90;;;;;;5010877;28;20266;-67
2021/03/10 08:24:59;;;;;;;39.63;23.30;;;6.30;99.90;;;;;;4992903;28;20465;-68
2021/03/10 08:27:39;;;;;;;32.23;20.50;;;6.30;99.90;;;;;;5021862;28;20453;-68
2021/03/10 08:30:11;;;;;;;30.73;17.17;;;6.30;99.90;;;;;;5034512;28;20451;-67
2021/03/10 08:32:37;;;;;;;32.30;18.70;;;6.30;99.90;;;;;;5016321;28;21043;-68
2021/03/10 08:35:20;;;;;;;28.87;17.33;;;6.40;99.90;;;;;;5030820;28;20577;-68
2021/03/10 08:37:58;;;;;;;30.73;15.30;;;6.40;99.90;;;;;;5031906;28;20468;-68
2021/03/10 08:40:28;;;;;;;21.07;11.13;;;6.40;99.90;;;;;;5027842;28;20463;-69
2021/03/10 08:42:57;;;;;;;23.60;11.80;;;6.50;99.90;;;;;;5010477;28;20467;-69
2021/03/10 08:45:33;;;;;;;28.73;12.37;;;6.50;99.90;;;;;;5028473;28;20475;-67
2021/03/10 08:48:05;;;;;;;34.87;14.10;;;6.50;99.90;;;;;;5010953;28;20467;-67
2021/03/10 08:50:40;;;;;;;21.60;12.00;;;6.60;99.90;;;;;;5012729;28;20448;-69
2021/03/10 08:53:07;;;;;;;20.60;12.23;;;6.60;99.90;;;;;;5009021;28;20909;-68
2021/03/10 08:55:35;;;;;;;24.33;12.80;;;6.60;99.90;;;;;;4989802;28;20536;-68
2021/03/10 08:58:10;;;;;;;25.17;13.30;;;6.70;99.90;;;;;;4989771;28;20455;-69
2021/03/10 09:00:36;;;;;;;24.10;10.80;;;6.70;99.90;;;;;;5013165;28;20502;-69
2021/03/10 09:03:13;;;;;;;28.57;14.83;;;6.80;99.90;;;;;;5015012;28;20580;-68
2021/03/10 09:05:41;;;;;;;21.43;11.50;;;6.80;99.90;;;;;;4998305;28;20519;-68
2021/03/10 09:08:11;;;;;;;26.37;13.03;;;6.80;99.90;;;;;;5002321;28;20606;-68
2021/03/10 09:10:44;;;;;;;21.83;12.47;;;6.90;99.90;;;;;;5004961;28;20825;-68
2021/03/10 09:13:20;;;;;;;23.67;12.30;;;6.90;99.90;;;;;;5027698;28;20439;-69
2021/03/10 09:15:47;;;;;;;20.77;10.67;;;6.90;99.90;;;;;;5025413;28;20506;-69
2021/03/10 09:18:21;;;;;;;18.53;10.57;;;7.00;99.90;;;;;;4995262;28;20521;-69
2021/03/10 09:20:50;;;;;;;19.53;10.00;;;7.00;99.90;;;;;;4993104;28;20459;-68
2021/03/10 09:23:35;;;;;;;22.77;10.97;;;7.00;99.90;;;;;;4983017;28;20617;-68
2021/03/10 09:26:04;;;;;;;19.80;8.90;;;7.10;99.90;;;;;;4980716;28;20468;-68
2021/03/10 09:28:38;;;;;;;18.90;10.37;;;7.10;99.90;;;;;;4991919;28;20482;-68
2021/03/10 09:31:16;;;;;;;24.23;9.67;;;7.10;99.90;;;;;;5041865;28;20458;-68
2021/03/10 09:33:51;;;;;;;22.53;10.30;;;7.20;99.90;;;;;;5005514;28;20452;-69
2021/03/10 09:36:25;;;;;;;16.10;9.77;;;7.20;99.90;;;;;;4989680;28;20487;-67
2021/03/10 09:38:55;;;;;;;17.30;9.07;;;7.20;99.90;;;;;;5004949;28;20530;-68
2021/03/10 09:41:32;;;;;;;24.03;9.97;;;7.20;99.90;;;;;;5007285;28;20507;-69
2021/03/10 09:44:06;;;;;;;23.53;11.23;;;7.20;99.90;;;;;;4991072;28;20465;-68
2021/03/10 09:46:40;;;;;;;17.97;9.60;;;7.30;99.90;;;;;;5010624;28;20456;-69
2021/03/10 09:49:06;;;;;;;15.40;8.07;;;7.30;99.90;;;;;;5009688;28;20491;-67
2021/03/10 09:51:32;;;;;;;18.60;9.20;;;7.30;99.90;;;;;;5010460;28;20503;-68
2021/03/10 09:54:00;;;;;;;19.10;10.30;;;7.30;99.90;;;;;;5001865;28;20641;-68
2021/03/10 09:56:34;;;;;;;20.77;9.37;;;7.40;99.90;;;;;;5031825;28;21051;-68
2021/03/10 09:59:05;;;;;;;16.33;9.40;;;7.40;99.90;;;;;;5046294;28;20455;-69
2021/03/10 10:01:46;;;;;;;16.53;9.17;;;7.50;99.90;;;;;;5031222;28;20472;-67
2021/03/10 10:04:14;;;;;;;17.93;9.13;;;7.50;99.90;;;;;;5014050;28;20459;-69
2021/03/10 10:06:52;;;;;;;14.90;8.90;;;7.50;99.90;;;;;;5013710;28;21069;-67
2021/03/10 10:09:20;;;;;;;16.70;8.47;;;7.50;99.90;;;;;;5015665;28;20448;-67
2021/03/10 10:11:46;;;;;;;22.10;10.27;;;7.60;99.90;;;;;;4993317;28;20460;-68
2021/03/10 10:14:11;;;;;;;23.43;9.30;;;7.60;99.90;;;;;;4995976;28;20460;-67
2021/03/10 10:16:38;;;;;;;18.07;9.30;;;7.70;99.90;;;;;;4993896;28;20221;-68
2021/03/10 10:19:07;;;;;;;16.90;9.07;;;7.70;99.90;;;;;;5023888;28;20456;-67
2021/03/10 10:21:36;;;;;;;18.90;10.17;;;7.80;99.90;;;;;;5010708;28;20460;-68
2021/03/10 10:24:01;;;;;;;28.50;12.53;;;7.80;99.90;;;;;;5010356;28;20506;-69
2021/03/10 10:26:27;;;;;;;24.97;14.60;;;7.90;99.90;;;;;;5009991;28;20271;-68
2021/03/10 10:28:53;;;;;;;23.20;13.20;;;7.90;99.90;;;;;;4994043;28;20226;-68
2021/03/10 10:31:20;;;;;;;23.77;13.57;;;7.90;99.90;;;;;;4993075;28;20256;-69
2021/03/10 10:33:45;;;;;;;23.33;13.20;;;8.00;99.90;;;;;;5009314;28;20494;-69
2021/03/10 10:36:12;;;;;;;22.60;12.73;;;8.00;99.90;;;;;;4991283;28;20228;-70
2021/03/10 10:38:42;;;;;;;28.73;13.57;;;8.10;99.90;;;;;;5045599;28;20451;-71
2021/03/10 10:41:07;;;;;;;20.87;10.60;;;8.10;99.90;;;;;;5028369;28;20462;-67
2021/03/10 10:43:35;;;;;;;17.97;10.63;;;8.10;99.90;;;;;;5013319;28;20236;-68
2021/03/10 10:46:03;;;;;;;19.77;10.27;;;8.20;99.90;;;;;;5013171;28;20255;-67
2021/03/10 10:48:36;;;;;;;19.20;9.37;;;8.30;99.90;;;;;;5030315;28;20832;-70
2021/03/10 10:51:09;;;;;;;19.67;9.80;;;8.30;99.90;;;;;;5013574;28;20458;-68
2021/03/10 10:53:43;;;;;;;16.30;9.17;;;8.30;99.90;;;;;;5015806;28;20543;-68
2021/03/10 10:56:09;;;;;;;16.93;9.40;;;8.40;99.90;;;;;;5028467;28;20538;-68
2021/03/10 10:58:36;;;;;;;20.73;9.70;;;8.40;99.90;;;;;;5013499;28;20623;-69
2021/03/10 11:01:02;;;;;;;18.23;9.87;;;8.40;99.90;;;;;;5012559;28;20463;-70
2021/03/10 11:03:28;;;;;;;15.77;8.23;;;8.50;99.90;;;;;;5013682;28;20489;-68
2021/03/10 11:05:56;;;;;;;16.70;8.80;;;8.50;99.90;;;;;;5004604;28;20303;-68
2021/03/10 11:08:27;;;;;;;19.07;9.00;;;8.60;99.90;;;;;;5018210;28;20507;-69
2021/03/10 11:10:56;;;;;;;20.13;10.60;;;8.60;99.90;;;;;;5003422;28;20482;-67
2021/03/10 11:13:22;;;;;;;21.10;10.20;;;8.60;99.90;;;;;;4983355;28;20447;-68
2021/03/10 11:15:56;;;;;;;20.07;9.30;;;8.70;99.90;;;;;;4994337;28;20244;-69
2021/03/10 11:18:33;;;;;;;25.37;10.67;;;8.60;99.90;;;;;;5010917;28;20889;-69
2021/03/10 11:20:59;;;;;;;22.67;11.73;;;8.70;99.90;;;;;;4993955;28;20475;-68
2021/03/10 11:23:26;;;;;;;24.80;12.50;;;8.70;99.90;;;;;;5012591;28;20331;-68
2021/03/10 11:25:52;;;;;;;23.40;13.83;;;8.70;99.90;;;;;;4992058;28;20572;-70
2021/03/10 11:28:17;;;;;;;27.03;13.30;;;8.80;99.90;;;;;;5010885;28;20213;-68
2021/03/10 11:30:44;;;;;;;21.60;12.20;;;8.80;99.90;;;;;;5000227;28;20225;-72
2021/03/10 11:33:10;;;;;;;21.87;10.77;;;8.70;99.90;;;;;;5010475;28;20456;-69
2021/03/10 11:35:41;;;;;;;19.83;12.17;;;8.80;99.90;;;;;;4996291;28;20459;-68
2021/03/10 11:38:07;;;;;;;23.70;12.57;;;8.80;99.90;;;;;;4991037;28;20459;-68
2021/03/10 11:40:33;;;;;;;21.80;11.87;;;8.80;99.90;;;;;;4990119;28;20983;-68
2021/03/10 11:42:59;;;;;;;20.53;10.73;;;8.90;99.90;;;;;;5007646;28;20229;-69
2021/03/10 11:45:25;;;;;;;24.43;10.20;;;8.90;99.90;;;;;;5007628;28;20301;-70
2021/03/10 11:47:50;;;;;;;21.30;11.80;;;8.90;99.90;;;;;;5023525;28;20225;-68
2021/03/10 11:50:16;;;;;;;22.70;11.60;;;9.00;99.90;;;;;;5004986;28;20221;-70
2021/03/10 11:52:42;;;;;;;21.20;11.53;;;9.00;99.90;;;;;;5007936;28;20711;-68
2021/03/10 11:55:10;;;;;;;20.20;11.60;;;9.00;99.90;;;;;;4975742;28;20244;-69
2021/03/10 11:57:36;;;;;;;23.27;12.43;;;9.10;99.90;;;;;;4994841;28;20460;-69
2021/03/10 12:00:06;;;;;;;25.20;12.37;;;9.10;99.90;;;;;;4976481;28;20468;-69
2021/03/10 12:02:39;;;;;;;25.77;12.70;;;9.20;99.90;;;;;;5026709;28;20455;-69
2021/03/10 12:05:08;;;;;;;29.77;15.20;;;9.20;99.90;;;;;;5009057;28;20464;-69
2021/03/10 12:07:34;;;;;;;36.43;18.27;;;9.30;99.90;;;;;;4995854;28;20459;-68
2021/03/10 12:09:59;;;;;;;44.77;19.37;;;9.30;99.90;;;;;;5012601;28;20452;-72
2021/03/10 12:12:27;;;;;;;38.00;21.30;;;9.30;99.90;;;;;;5020740;28;20217;-69
2021/03/10 12:15:00;;;;;;;30.87;17.17;;;9.30;99.90;;;;;;4998689;28;20299;-67
2021/03/10 12:17:26;;;;;;;33.67;18.00;;;9.30;99.90;;;;;;5012067;28;20515;-69
2021/03/10 12:19:52;;;;;;;23.50;13.67;;;9.30;99.90;;;;;;5012206;28;20308;-68
2021/03/10 12:22:17;;;;;;;23.27;11.37;;;9.30;99.90;;;;;;5008500;28;20221;-69
2021/03/10 12:24:45;;;;;;;22.60;11.10;;;9.30;99.90;;;;;;5009325;28;20577;-70
2021/03/10 12:27:11;;;;;;;16.13;9.43;;;9.30;99.90;;;;;;5035219;28;20227;-68
2021/03/10 12:29:37;;;;;;;17.80;10.30;;;9.30;99.90;;;;;;5026177;28;20460;-68
2021/03/10 12:32:03;;;;;;;21.13;11.33;;;9.40;99.90;;;;;;5011833;28;20456;-70
2021/03/10 12:34:29;;;;;;;37.10;17.97;;;9.40;99.90;;;;;;4995675;28;20221;-68
2021/03/10 12:36:55;;;;;;;37.83;20.40;;;9.40;99.90;;;;;;5028285;28;20848;-68
2021/03/10 12:39:20;;;;;;;33.10;18.93;;;9.40;99.90;;;;;;5011214;28;20221;-70
2021/03/10 12:41:46;;;;;;;32.50;16.87;;;9.40;99.90;;;;;;4995052;28;20229;-68
2021/03/10 12:44:12;;;;;;;30.40;15.77;;;9.40;99.90;;;;;;4995028;28;20232;-69
2021/03/10 12:46:37;;;;;;;29.43;14.20;;;9.40;99.90;;;;;;5012034;28;20259;-68
2021/03/10 12:49:03;;;;;;;32.43;19.07;;;9.50;99.90;;;;;;4994909;28;20248;-69
2021/03/10 12:51:29;;;;;;;48.90;23.87;;;9.50;99.90;;;;;;5028035;28;20251;-71